Cheshire, Oregon
Current Conditions -  °F | °C
As of 8:54 PM on Friday 28 Nov 2014 (Local Time) from KEUG Reporting Station
Overcast Overcast  
Wind Chill: 50°   Ceiling: 3800
Heat Index: 50°   Visibility: 10mi
Dew Point: 45°   Wind: 10mph
Humidity: 83%   Direction: 280°W
Pressure: 29.61"   Gusts: NA
Location:  44.19°N, 123.29°W
Report Text: KEUG 290454Z 28009KT 10SM FEW016 BKN038 OVC049 10/07 A2961 RMK AO2 RAE36 SLP027 P0000 T01000072
Loading
Personal Weather Stations






























Interactive Weather Map New forecast layout! Learn more

10-Day Weather Forecast

Advertisements
Track Severe Weather on mobile